Welcome to Northern Hawkes Bay. New Zealand.
PWS Header
      nz Flag



Hit Counter


W3C Valid W3C Valid logo


    Wairoa

Select any of the Stations below to visit their websites.










Historic Data from Weather Underground
Select the location of interest below. Wairoa is the default. Please have patience, this Data is slow to load in.
Northern Hawkes Bay Historical Data
Daily Summary for August 2, 2017 Units:  Metric    English   Both
« Previous Day
Next Day »
Daily Weekly Monthly Yearly Custom
  High: Low: Average:
Temperature: 10.7 °C 7.9 °C 9.5 °C
Dew Point: 10.2 °C 7.4 °C 8.8 °C
Humidity: 99% 86% 95%
Wind Speed: 17.2km/h 0.0km/h 4.8km/h
Wind Gust: 23.3km/h - -
Wind- - SW
Pressure: 1021.6 hPa 1018.8 hPa -
Precipitation: 11.7 mm    
Historical Graphs
 
 
Tabular Data for August 2, 2017
Time Temperature Dew Point Pressure Wind Wind Speed Wind Gust Humidity Rainfall Rate (Hourly) solar
00:04 10.7 °C 10.2 °C 1021.2 hPa WSW 5.0 km/h 13.4 km/h 97% 0.0 mm 0 W/m2
00:09 10.7 °C 10.2 °C 1021.2 hPa WSW 1.1 km/h 8.7 km/h 97% 0.0 mm 0 W/m2
00:14 10.7 °C 10.2 °C 1020.9 hPa WSW 3.5 km/h 7.2 km/h 97% 0.0 mm 0 W/m2
00:19 10.7 °C 10.2 °C 1020.9 hPa WSW 1.1 km/h 6.1 km/h 97% 0.0 mm 0 W/m2
00:24 10.6 °C 10.2 °C 1020.9 hPa WSW 2.6 km/h 7.2 km/h 97% 0.0 mm 0 W/m2
00:29 10.6 °C 10.2 °C 1020.9 hPa Calm   7.2 km/h 97% 0.0 mm 0 W/m2
00:34 10.6 °C 10.2 °C 1020.9 hPa West 1.1 km/h 6.1 km/h 97% 0.0 mm 0 W/m2
00:39 10.6 °C 10.2 °C 1020.9 hPa Calm   2.6 km/h 97% 0.0 mm 0 W/m2
00:44 10.6 °C 10.0 °C 1020.9 hPa WNW 1.1 km/h 2.6 km/h 96% 0.0 mm 0 W/m2
00:49 10.6 °C 10.0 °C 1020.9 hPa NW 1.1 km/h 3.5 km/h 96% 0.0 mm 0 W/m2
00:54 10.6 °C 10.0 °C 1020.5 hPa NW 1.1 km/h 6.1 km/h 96% 0.0 mm 0 W/m2
00:59 10.5 °C 9.9 °C 1020.5 hPa NW 2.6 km/h 6.1 km/h 96% 0.0 mm 0 W/m2
01:04 10.4 °C 9.8 °C 1020.5 hPa NNW 2.6 km/h 5.0 km/h 96% 0.0 mm 0 W/m2
01:09 10.3 °C 9.7 °C 1020.5 hPa Calm   5.0 km/h 96% 0.0 mm 0 W/m2
01:14 10.2 °C 9.6 °C 1020.5 hPa Calm   5.0 km/h 96% 0.0 mm 0 W/m2
01:19 10.2 °C 9.6 °C 1020.5 hPa Calm     96% 0.0 mm 0 W/m2
01:24 10.1 °C 9.5 °C 1020.5 hPa North 2.6 km/h 3.5 km/h 96% 0.0 mm 0 W/m2
01:29 10.1 °C 9.5 °C 1020.5 hPa North 2.6 km/h 5.0 km/h 96% 0.0 mm 0 W/m2
01:34 10.1 °C 9.5 °C 1020.5 hPa North 2.6 km/h 5.0 km/h 96% 0.0 mm 0 W/m2
01:39 10.0 °C 9.4 °C 1020.5 hPa North 1.1 km/h 3.5 km/h 96% 0.0 mm 0 W/m2
01:44 10.0 °C 9.4 °C 1020.2 hPa North 2.6 km/h 5.0 km/h 96% 0.0 mm 0 W/m2
01:50 10.0 °C 9.6 °C 1020.2 hPa North 1.1 km/h 5.0 km/h 97% 0.0 mm 0 W/m2
01:55 9.9 °C 9.6 °C 1020.2 hPa North 1.1 km/h 5.0 km/h 98% 0.0 mm 0 W/m2
02:00 9.9 °C 9.6 °C 1020.2 hPa Calm   2.6 km/h 98% 0.0 mm 0 W/m2
02:05 9.8 °C 9.5 °C 1020.2 hPa Calm   2.6 km/h 98% 0.0 mm 0 W/m2
02:10 9.8 °C 9.5 °C 1020.2 hPa Calm   1.1 km/h 98% 0.0 mm 0 W/m2
02:15 9.8 °C 9.5 °C 1020.2 hPa Calm     98% 0.0 mm 0 W/m2
02:20 9.8 °C 9.5 °C 1020.2 hPa Calm     98% 0.0 mm 0 W/m2
02:25 9.8 °C 9.5 °C 1019.9 hPa Calm     98% 0.0 mm 0 W/m2
02:30 9.8 °C 9.5 °C 1020.2 hPa Calm   1.1 km/h 98% 0.0 mm 0 W/m2
02:35 9.8 °C 9.5 °C 1019.9 hPa Calm   1.1 km/h 98% 0.0 mm 0 W/m2
02:40 9.7 °C 9.4 °C 1019.9 hPa Calm   1.1 km/h 98% 0.0 mm 0 W/m2
02:46 9.7 °C 9.4 °C 1019.9 hPa North 1.1 km/h 2.6 km/h 98% 0.0 mm 0 W/m2
02:51 9.8 °C 9.5 °C 1019.9 hPa NNW 1.1 km/h 2.6 km/h 98% 0.0 mm 0 W/m2
02:56 9.8 °C 9.5 °C 1019.9 hPa Calm   2.6 km/h 98% 0.0 mm 0 W/m2
03:01 9.7 °C 9.4 °C 1019.9 hPa Calm   2.6 km/h 98% 0.0 mm 0 W/m2
03:06 9.7 °C 9.4 °C 1019.5 hPa Calm     98% 0.0 mm 0 W/m2
03:11 9.7 °C 9.4 °C 1019.9 hPa NW 1.1 km/h 3.5 km/h 98% 0.0 mm 0 W/m2
03:16 9.7 °C 9.4 °C 1019.9 hPa NW 2.6 km/h 5.0 km/h 98% 0.0 mm 0 W/m2
03:21 9.7 °C 9.4 °C 1019.5 hPa NW 2.6 km/h 5.0 km/h 98% 0.0 mm 0 W/m2
03:26 9.7 °C 9.4 °C 1019.9 hPa Calm   3.5 km/h 98% 0.3 mm 0 W/m2
03:31 9.7 °C 9.4 °C 1019.5 hPa NNW 1.1 km/h 3.5 km/h 98% 0.3 mm 0 W/m2
03:36 9.6 °C 9.3 °C 1019.9 hPa Calm   3.5 km/h 98% 0.3 mm 0 W/m2
03:41 9.6 °C 9.3 °C 1019.5 hPa Calm   3.5 km/h 98% 0.3 mm 0 W/m2
03:46 9.6 °C 9.3 °C 1019.9 hPa Calm     98% 0.3 mm 0 W/m2
03:51 9.6 °C 9.3 °C 1019.9 hPa Calm   2.6 km/h 98% 0.3 mm 0 W/m2
03:56 9.6 °C 9.3 °C 1019.5 hPa North 2.6 km/h 5.0 km/h 98% 0.3 mm 0 W/m2
04:01 9.6 °C 9.4 °C 1019.5 hPa Calm   5.0 km/h 99% 0.3 mm 0 W/m2
04:06 9.6 °C 9.4 °C 1019.9 hPa WNW 2.6 km/h 6.1 km/h 99% 0.3 mm 0 W/m2
04:11 9.7 °C 9.6 °C 1019.9 hPa West 1.1 km/h 6.1 km/h 99% 0.3 mm 0 W/m2
04:16 9.8 °C 9.7 °C 1019.5 hPa Calm   5.0 km/h 99% 0.5 mm 0 W/m2
04:21 9.8 °C 9.7 °C 1019.5 hPa West 2.6 km/h 8.7 km/h 99% 0.5 mm 0 W/m2
04:26 9.9 °C 9.8 °C 1019.9 hPa West 5.0 km/h 8.7 km/h 99% 0.3 mm 0 W/m2
04:31 9.9 °C 9.8 °C 1019.9 hPa WNW 3.5 km/h 6.1 km/h 99% 0.5 mm 0 W/m2
04:36 10.0 °C 9.7 °C 1019.5 hPa NW 2.6 km/h 9.7 km/h 98% 1.0 mm 0 W/m2
04:41 10.0 °C 9.7 °C 1019.5 hPa WNW 5.0 km/h 9.7 km/h 98% 1.0 mm 0 W/m2
04:46 10.0 °C 9.7 °C 1019.9 hPa WSW 1.1 km/h 11.1 km/h 98% 1.0 mm 0 W/m2
04:51 10.1 °C 9.8 °C 1019.5 hPa SW 2.6 km/h 11.1 km/h 98% 1.3 mm 0 W/m2
04:56 10.2 °C 9.9 °C 1019.9 hPa SW 5.0 km/h 8.7 km/h 98% 1.3 mm 0 W/m2
05:01 10.2 °C 9.9 °C 1019.9 hPa WSW 3.5 km/h 9.7 km/h 98% 1.3 mm 0 W/m2
05:06 10.2 °C 9.9 °C 1019.9 hPa SW 5.0 km/h 9.7 km/h 98% 1.3 mm 0 W/m2
05:11 10.2 °C 9.9 °C 1019.9 hPa SW 5.0 km/h 9.7 km/h 98% 1.5 mm 0 W/m2
05:16 10.2 °C 9.9 °C 1019.9 hPa SW 6.1 km/h 11.1 km/h 98% 1.3 mm 0 W/m2
05:21 10.2 °C 9.9 °C 1019.9 hPa SW 3.5 km/h 11.1 km/h 98% 1.3 mm 0 W/m2
05:26 10.2 °C 9.9 °C 1019.9 hPa WSW 5.0 km/h 9.7 km/h 98% 1.3 mm 0 W/m2
05:31 10.2 °C 9.9 °C 1019.9 hPa WSW 3.5 km/h 11.1 km/h 98% 1.0 mm 0 W/m2
05:36 10.1 °C 9.8 °C 1020.2 hPa WSW 5.0 km/h 11.1 km/h 98% 1.0 mm 0 W/m2
05:41 10.1 °C 9.8 °C 1019.9 hPa SW 6.1 km/h 9.7 km/h 98% 1.3 mm 0 W/m2
05:46 10.1 °C 9.8 °C 1019.9 hPa SW 6.1 km/h 11.1 km/h 98% 1.3 mm 0 W/m2
05:51 10.1 °C 9.8 °C 1019.9 hPa SW 6.1 km/h 11.1 km/h 98% 1.3 mm 0 W/m2
05:56 10.1 °C 9.8 °C 1019.9 hPa SW 7.2 km/h 12.2 km/h 98% 1.3 mm 0 W/m2
06:01 10.1 °C 9.8 °C 1019.9 hPa SW 9.7 km/h 13.4 km/h 98% 1.3 mm 0 W/m2
06:06 10.1 °C 9.8 °C 1019.9 hPa SW 7.2 km/h 13.4 km/h 98% 1.3 mm 0 W/m2
06:11 10.1 °C 9.8 °C 1019.9 hPa SW 3.5 km/h 13.4 km/h 98% 1.3 mm 0 W/m2
06:16 10.1 °C 9.8 °C 1020.2 hPa SW 7.2 km/h 12.2 km/h 98% 1.3 mm 0 W/m2
06:21 10.1 °C 9.8 °C 1020.2 hPa WSW 7.2 km/h 13.4 km/h 98% 1.3 mm 0 W/m2
06:26 10.1 °C 9.8 °C 1020.2 hPa SW 8.7 km/h 13.4 km/h 98% 1.3 mm 0 W/m2
06:31 10.1 °C 9.8 °C 1020.2 hPa SW 7.2 km/h 13.4 km/h 98% 1.5 mm 0 W/m2
06:36 10.1 °C 9.8 °C 1020.2 hPa SW 7.2 km/h 13.4 km/h 98% 1.3 mm 0 W/m2
06:41 10.1 °C 9.8 °C 1020.2 hPa SW 9.7 km/h 14.8 km/h 98% 1.0 mm 0 W/m2
06:46 10.1 °C 9.8 °C 1020.2 hPa SW 5.0 km/h 14.8 km/h 98% 1.3 mm 0 W/m2
06:51 10.1 °C 9.8 °C 1020.2 hPa SSW 11.1 km/h 15.8 km/h 98% 1.0 mm 0 W/m2
06:56 10.0 °C 9.6 °C 1020.2 hPa South 9.7 km/h 15.8 km/h 97% 1.0 mm 0 W/m2
07:01 9.9 °C 9.6 °C 1020.2 hPa South 7.2 km/h 15.8 km/h 98% 1.3 mm 0 W/m2
07:06 9.9 °C 9.6 °C 1020.5 hPa SSW 11.1 km/h 17.2 km/h 98% 1.3 mm 0 W/m2
07:11 9.9 °C 9.6 °C 1020.5 hPa South 7.2 km/h 17.2 km/h 98% 1.0 mm 0 W/m2
07:16 10.0 °C 9.6 °C 1020.5 hPa South 12.2 km/h 18.3 km/h 97% 1.0 mm 0 W/m2
07:21 10.0 °C 9.6 °C 1020.5 hPa SSW 8.7 km/h 21.9 km/h 97% 1.3 mm 0 W/m2
07:26 10.0 °C 9.6 °C 1020.5 hPa SW 17.2 km/h 21.9 km/h 97% 1.3 mm 0 W/m2
07:31 9.9 °C 9.6 °C 1020.5 hPa SSW 8.7 km/h 21.9 km/h 98% 1.0 mm 0 W/m2
07:36 9.6 °C 9.3 °C 1020.5 hPa SSE 9.7 km/h 23.3 km/h 98% 1.3 mm 1 W/m2
07:41 9.6 °C 9.3 °C 1020.5 hPa SSE 7.2 km/h 23.3 km/h 98% 1.3 mm 3 W/m2
07:46 9.7 °C 9.4 °C 1020.9 hPa South 11.1 km/h 19.5 km/h 98% 1.3 mm 4 W/m2
07:51 9.8 °C 9.3 °C 1020.9 hPa South 9.7 km/h 15.8 km/h 97% 1.3 mm 4 W/m2
07:58 9.9 °C 9.4 °C 1020.9 hPa SSW 6.1 km/h 15.8 km/h 97% 1.5 mm 5 W/m2
08:04 9.8 °C 9.3 °C 1020.9 hPa SSW 6.1 km/h 13.4 km/h 97% 1.5 mm 7 W/m2
08:08 9.8 °C 9.3 °C 1020.9 hPa South 3.5 km/h 12.2 km/h 97% 1.5 mm 9 W/m2
08:09 9.8 °C 9.3 °C 1020.9 hPa South 5.0 km/h 12.2 km/h 97% 1.5 mm 9 W/m2
08:14 9.8 °C 9.3 °C 1021.2 hPa SSW 5.0 km/h 11.1 km/h 97% 1.5 mm 4 W/m2
08:19 9.8 °C 9.3 °C 1021.2 hPa SSW 9.7 km/h 12.2 km/h 97% 1.8 mm 5 W/m2
08:21 9.7 °C 9.2 °C 1020.9 hPa SSW 7.2 km/h 14.8 km/h 97% 1.8 mm 8 W/m2
08:23 9.7 °C 9.2 °C 1020.9 hPa SSW 9.7 km/h 17.2 km/h 97% 2.0 mm 11 W/m2
08:24 9.7 °C 9.2 °C 1021.2 hPa SSW 9.7 km/h 17.2 km/h 97% 2.3 mm 11 W/m2
08:30 9.6 °C 9.2 °C 1021.2 hPa SSW 11.1 km/h 17.2 km/h 97% 2.8 mm 16 W/m2
08:35 9.5 °C 9.1 °C 1021.2 hPa South 7.2 km/h 17.2 km/h 97% 2.8 mm 17 W/m2
08:40 9.6 °C 9.2 °C 1021.2 hPa South 5.0 km/h 15.8 km/h 97% 2.8 mm 22 W/m2
08:45 9.7 °C 9.2 °C 1021.2 hPa South 3.5 km/h 11.1 km/h 97% 2.3 mm 32 W/m2
08:50 9.7 °C 9.2 °C 1020.9 hPa SSW 5.0 km/h 11.1 km/h 97% 2.8 mm 40 W/m2
08:55 9.7 °C 9.2 °C 1020.9 hPa South 3.5 km/h 9.7 km/h 97% 2.8 mm 49 W/m2
09:00 9.7 °C 9.2 °C 1021.2 hPa South 8.7 km/h 9.7 km/h 97% 2.3 mm 54 W/m2
09:05 9.9 °C 9.4 °C 1021.2 hPa South 5.0 km/h 9.7 km/h 97% 2.0 mm 39 W/m2
09:11 10.0 °C 9.4 °C 1021.2 hPa South 8.7 km/h 9.7 km/h 96% 2.3 mm 28 W/m2
09:16 10.0 °C 9.2 °C 1021.2 hPa SSW 6.1 km/h 11.1 km/h 95% 2.3 mm 22 W/m2
09:22 9.9 °C 9.3 °C 1020.9 hPa SW 6.1 km/h 13.4 km/h 96% 1.5 mm 42 W/m2
09:27 9.8 °C 9.2 °C 1021.2 hPa SSW 5.0 km/h 13.4 km/h 96% 1.3 mm 40 W/m2
09:32 9.7 °C 9.1 °C 1020.9 hPa South 6.1 km/h 12.2 km/h 96% 1.3 mm 33 W/m2
09:37 9.6 °C 9.0 °C 1021.2 hPa South 8.7 km/h 12.2 km/h 96% 1.3 mm 38 W/m2
09:42 9.7 °C 9.1 °C 1021.2 hPa South 6.1 km/h 12.2 km/h 96% 1.3 mm 46 W/m2
09:47 9.8 °C 9.2 °C 1021.2 hPa South 9.7 km/h 18.3 km/h 96% 1.3 mm 45 W/m2
09:52 9.8 °C 9.2 °C 1021.2 hPa South 11.1 km/h 18.3 km/h 96% 1.3 mm 40 W/m2
09:57 9.6 °C 9.0 °C 1021.6 hPa SSE 9.7 km/h 18.3 km/h 96% 1.3 mm 33 W/m2
09:59 9.6 °C 9.0 °C 1021.6 hPa SSE 8.7 km/h 18.3 km/h 96% 1.3 mm 33 W/m2
10:04 9.5 °C 8.9 °C 1021.2 hPa SSE 5.0 km/h 15.8 km/h 96% 1.5 mm 34 W/m2
10:09 9.5 °C 8.9 °C 1021.6 hPa SSW 8.7 km/h 18.3 km/h 96% 1.3 mm 60 W/m2
10:14 9.4 °C 8.8 °C 1021.2 hPa South 3.5 km/h 18.3 km/h 96% 1.3 mm 60 W/m2
10:19 9.5 °C 9.1 °C 1021.6 hPa South 12.2 km/h 18.3 km/h 97% 1.3 mm 101 W/m2
10:24 9.7 °C 9.2 °C 1021.6 hPa SSW 12.2 km/h 18.3 km/h 97% 1.3 mm 121 W/m2
10:30 9.9 °C 9.4 °C 1021.6 hPa SW 6.1 km/h 17.2 km/h 97% 1.0 mm 119 W/m2
10:35 10.0 °C 9.4 °C 1021.6 hPa SSW 7.2 km/h 13.4 km/h 96% 1.3 mm 136 W/m2
10:40 9.9 °C 9.4 °C 1021.6 hPa SW 6.1 km/h 17.2 km/h 97% 1.0 mm 130 W/m2
10:45 10.0 °C 9.2 °C 1021.6 hPa SW 7.2 km/h 17.2 km/h 95% 1.0 mm 155 W/m2
10:50 10.1 °C 9.3 °C 1021.6 hPa WSW 14.8 km/h 18.3 km/h 95% 1.0 mm 138 W/m2
10:56 10.1 °C 9.2 °C 1021.6 hPa SW 12.2 km/h 18.3 km/h 94% 0.5 mm 137 W/m2
11:01 10.2 °C 9.1 °C 1021.6 hPa SW 13.4 km/h 19.5 km/h 93% 0.5 mm 119 W/m2
11:06 10.2 °C 9.1 °C 1021.6 hPa SW 9.7 km/h 19.5 km/h 93% 0.3 mm 102 W/m2
11:11 10.2 °C 9.1 °C 1021.6 hPa SW 12.2 km/h 17.2 km/h 93% 0.3 mm 121 W/m2
11:16 10.2 °C 9.1 °C 1021.6 hPa SW 6.1 km/h 15.8 km/h 93% 0.3 mm 137 W/m2
11:21 10.3 °C 9.2 °C 1021.6 hPa SW 7.2 km/h 11.1 km/h 93% 0.3 mm 160 W/m2
11:26 10.5 °C 9.4 °C 1021.6 hPa SW 8.7 km/h 11.1 km/h 93% 0.3 mm 139 W/m2
11:31 10.5 °C 9.4 °C 1021.6 hPa SW 6.1 km/h 11.1 km/h 93% 0.3 mm 117 W/m2
11:36 10.5 °C 9.3 °C 1021.2 hPa SW 5.0 km/h 12.2 km/h 92% 0.0 mm 114 W/m2
11:41 10.7 °C 9.1 °C 1021.2 hPa SSW 1.1 km/h 12.2 km/h 90% 0.0 mm 100 W/m2
11:46 10.6 °C 9.1 °C 1021.2 hPa SE 6.1 km/h 12.2 km/h 90% 0.0 mm 126 W/m2
12:03 10.3 °C 8.9 °C 1020.9 hPa SSE 9.7 km/h 13.4 km/h 91% 0.0 mm 107 W/m2
12:08 10.2 °C 8.8 °C 1020.9 hPa SSW 3.5 km/h 13.4 km/h 91% 0.0 mm 102 W/m2
12:13 10.2 °C 8.8 °C 1020.9 hPa SW 7.2 km/h 12.2 km/h 91% 0.0 mm 86 W/m2
12:18 10.2 °C 8.6 °C 1020.9 hPa SW 5.0 km/h 12.2 km/h 90% 0.0 mm 66 W/m2
12:23 10.1 °C 8.6 °C 1020.5 hPa SW 13.4 km/h 14.8 km/h 90% 0.3 mm 84 W/m2
12:28 9.9 °C 8.7 °C 1020.9 hPa SW 7.2 km/h 14.8 km/h 92% 0.3 mm 93 W/m2
12:33 9.6 °C 8.5 °C 1020.5 hPa SW 6.1 km/h 17.2 km/h 93% 0.5 mm 103 W/m2
12:38 9.7 °C 8.8 °C 1020.5 hPa SSW 8.7 km/h 17.2 km/h 94% 0.5 mm 107 W/m2
12:43 9.6 °C 8.7 °C 1020.2 hPa SW 6.1 km/h 12.2 km/h 94% 0.5 mm 90 W/m2
12:48 9.4 °C 8.5 °C 1020.2 hPa SW 7.2 km/h 13.4 km/h 94% 0.5 mm 79 W/m2
12:53 9.4 °C 8.5 °C 1020.2 hPa SW 11.1 km/h 13.4 km/h 94% 0.5 mm 72 W/m2
12:58 9.3 °C 8.6 °C 1020.2 hPa SW 3.5 km/h 12.2 km/h 95% 0.5 mm 92 W/m2
13:03 9.3 °C 8.6 °C 1019.9 hPa SW 5.0 km/h 12.2 km/h 95% 0.5 mm 121 W/m2
13:08 9.3 °C 8.6 °C 1019.9 hPa SW 3.5 km/h 8.7 km/h 95% 0.5 mm 115 W/m2
13:13 9.5 °C 8.7 °C 1019.9 hPa SW 3.5 km/h 8.7 km/h 95% 0.5 mm 120 W/m2
13:18 9.5 °C 8.7 °C 1019.9 hPa SW 3.5 km/h 9.7 km/h 95% 0.5 mm 119 W/m2
13:23 9.7 °C 8.9 °C 1019.5 hPa SW 5.0 km/h 9.7 km/h 95% 0.3 mm 139 W/m2
13:28 10.0 °C 9.1 °C 1019.9 hPa SW 6.1 km/h 9.7 km/h 94% 0.3 mm 143 W/m2
13:33 10.0 °C 9.1 °C 1019.5 hPa SW 5.0 km/h 9.7 km/h 94% 0.0 mm 150 W/m2
13:38 9.8 °C 8.9 °C 1019.5 hPa SW 3.5 km/h 11.1 km/h 94% 0.3 mm 142 W/m2
13:40 9.9 °C 9.0 °C 1019.5 hPa SW 3.5 km/h 11.1 km/h 94% 0.3 mm 136 W/m2
13:45 10.0 °C 9.1 °C 1019.5 hPa WSW 3.5 km/h 11.1 km/h 94% 0.3 mm 121 W/m2
13:50 10.0 °C 9.1 °C 1019.5 hPa SW 6.1 km/h 9.7 km/h 94% 0.3 mm 98 W/m2
13:55 9.9 °C 9.0 °C 1019.5 hPa SW 6.1 km/h 12.2 km/h 94% 0.3 mm 79 W/m2
14:00 9.8 °C 8.9 °C 1019.2 hPa SW 3.5 km/h 12.2 km/h 94% 1.0 mm 68 W/m2
14:05 9.7 °C 8.8 °C 1019.2 hPa SW 3.5 km/h 8.7 km/h 94% 1.0 mm 47 W/m2
14:10 9.7 °C 8.9 °C 1019.2 hPa WSW 2.6 km/h 7.2 km/h 95% 1.0 mm 43 W/m2
14:15 9.7 °C 8.9 °C 1019.2 hPa SW 1.1 km/h 6.1 km/h 95% 1.3 mm 53 W/m2
14:20 9.7 °C 8.9 °C 1019.2 hPa SSE 6.1 km/h 8.7 km/h 95% 1.3 mm 77 W/m2
14:25 9.7 °C 8.9 °C 1019.2 hPa South 8.7 km/h 13.4 km/h 95% 1.3 mm 90 W/m2
14:30 9.9 °C 9.1 °C 1019.2 hPa SSW 8.7 km/h 14.8 km/h 95% 1.3 mm 95 W/m2
14:35 10.0 °C 8.9 °C 1019.2 hPa SW 7.2 km/h 17.2 km/h 93% 1.0 mm 95 W/m2
14:40 10.0 °C 8.8 °C 1019.2 hPa SSW 11.1 km/h 17.2 km/h 92% 1.0 mm 91 W/m2
14:45 10.1 °C 8.7 °C 1018.8 hPa SSW 9.7 km/h 15.8 km/h 91% 1.0 mm 98 W/m2
14:50 10.2 °C 8.8 °C 1018.8 hPa SSW 7.2 km/h 14.8 km/h 91% 1.0 mm 94 W/m2
14:56 10.2 °C 8.6 °C 1018.8 hPa SW 7.2 km/h 14.8 km/h 90% 1.0 mm 85 W/m2
15:01 10.2 °C 8.6 °C 1018.8 hPa SW 7.2 km/h 15.8 km/h 90% 0.3 mm 72 W/m2
15:06 10.2 °C 8.6 °C 1018.8 hPa SW 7.2 km/h 15.8 km/h 90% 0.3 mm 94 W/m2
15:11 10.2 °C 8.6 °C 1018.8 hPa SSW 8.7 km/h 17.2 km/h 90% 0.3 mm 110 W/m2
15:16 10.3 °C 8.7 °C 1018.8 hPa SSW 8.7 km/h 17.2 km/h 90% 0.0 mm 111 W/m2
15:21 10.4 °C 9.0 °C 1018.8 hPa SSW 7.2 km/h 14.8 km/h 91% 0.0 mm 96 W/m2
15:26 10.4 °C 8.8 °C 1018.8 hPa SSW 11.1 km/h 13.4 km/h 90% 0.0 mm 60 W/m2
15:31 10.3 °C 8.7 °C 1018.8 hPa SSW 9.7 km/h 15.8 km/h 90% 0.0 mm 66 W/m2
15:36 10.1 °C 8.2 °C 1018.8 hPa SSW 6.1 km/h 19.5 km/h 88% 0.0 mm 61 W/m2
15:41 10.1 °C 8.1 °C 1018.8 hPa South 9.7 km/h 19.5 km/h 87% 0.0 mm 55 W/m2
15:46 10.1 °C 8.1 °C 1018.8 hPa South 9.7 km/h 14.8 km/h 87% 0.0 mm 51 W/m2
15:51 10.1 °C 8.1 °C 1018.8 hPa South 6.1 km/h 14.8 km/h 87% 0.0 mm 43 W/m2
15:56 10.1 °C 8.2 °C 1018.8 hPa South 5.0 km/h 12.2 km/h 88% 0.0 mm 41 W/m2
16:01 10.1 °C 8.2 °C 1018.8 hPa South 8.7 km/h 12.2 km/h 88% 0.0 mm 39 W/m2
16:06 10.1 °C 8.2 °C 1018.8 hPa SSW 7.2 km/h 12.2 km/h 88% 0.0 mm 33 W/m2
16:11 10.1 °C 8.1 °C 1018.8 hPa SSW 5.0 km/h 12.2 km/h 87% 0.0 mm 30 W/m2
16:16 10.1 °C 8.1 °C 1018.8 hPa SSW 7.2 km/h 11.1 km/h 87% 0.0 mm 32 W/m2
16:21 10.1 °C 7.9 °C 1018.8 hPa SSW 6.1 km/h 12.2 km/h 86% 0.0 mm 33 W/m2
16:26 10.1 °C 7.9 °C 1018.8 hPa SSW 7.2 km/h 12.2 km/h 86% 0.0 mm 32 W/m2
16:31 10.1 °C 7.9 °C 1018.8 hPa SSW 7.2 km/h 14.8 km/h 86% 0.0 mm 26 W/m2
16:36 10.1 °C 8.1 °C 1018.8 hPa SSW 5.0 km/h 14.8 km/h 87% 0.0 mm 19 W/m2
16:41 10.1 °C 8.1 °C 1018.8 hPa SSW 5.0 km/h 9.7 km/h 87% 0.0 mm 10 W/m2
16:46 10.0 °C 7.9 °C 1019.2 hPa SSW 5.0 km/h 9.7 km/h 87% 0.0 mm 3 W/m2
16:52 10.0 °C 7.9 °C 1019.2 hPa SSW 7.2 km/h 15.8 km/h 87% 0.0 mm 2 W/m2
16:57 9.8 °C 8.1 °C 1019.2 hPa SSW 7.2 km/h 15.8 km/h 89% 0.0 mm 1 W/m2
17:02 9.6 °C 7.9 °C 1018.8 hPa SW 7.2 km/h 14.8 km/h 89% 0.0 mm 0 W/m2
17:07 9.6 °C 7.9 °C 1019.2 hPa SSW 6.1 km/h 13.4 km/h 89% 0.0 mm 0 W/m2
17:12 9.5 °C 7.8 °C 1019.2 hPa SW 5.0 km/h 13.4 km/h 89% 0.0 mm 0 W/m2
17:17 9.4 °C 7.8 °C 1019.2 hPa SW 5.0 km/h 11.1 km/h 90% 0.0 mm 0 W/m2
17:22 9.4 °C 7.8 °C 1019.2 hPa SW 5.0 km/h 11.1 km/h 90% 0.0 mm 0 W/m2
17:27 9.4 °C 7.8 °C 1019.2 hPa SW 6.1 km/h 8.7 km/h 90% 0.0 mm 0 W/m2
17:32 9.4 °C 7.7 °C 1019.2 hPa SW 5.0 km/h 8.7 km/h 89% 0.0 mm 0 W/m2
17:37 9.5 °C 7.6 °C 1019.5 hPa SW 8.7 km/h 14.8 km/h 88% 0.0 mm 0 W/m2
17:42 9.6 °C 7.6 °C 1019.2 hPa SSW 6.1 km/h 14.8 km/h 87% 0.0 mm 0 W/m2
17:47 9.5 °C 7.4 °C 1019.2 hPa Calm   11.1 km/h 87% 0.0 mm 0 W/m2
17:52 9.5 °C 7.4 °C 1019.5 hPa Calm   8.7 km/h 87% 0.0 mm 0 W/m2
17:57 9.5 °C 7.4 °C 1019.5 hPa SSE 7.2 km/h 12.2 km/h 87% 0.0 mm 0 W/m2
18:02 9.4 °C 7.5 °C 1019.5 hPa SW 6.1 km/h 13.4 km/h 88% 0.0 mm 0 W/m2
18:08 9.2 °C 7.7 °C 1019.5 hPa SW 6.1 km/h 13.4 km/h 90% 0.0 mm 0 W/m2
18:13 9.0 °C 7.6 °C 1019.5 hPa SSW 1.1 km/h 9.7 km/h 91% 0.0 mm 0 W/m2
18:18 8.9 °C 7.7 °C 1019.5 hPa SW 1.1 km/h 8.7 km/h 92% 0.0 mm 0 W/m2
18:23 8.9 °C 7.8 °C 1019.5 hPa SW 3.5 km/h 6.1 km/h 93% 0.0 mm 0 W/m2
18:28 8.8 °C 7.9 °C 1019.5 hPa SW 6.1 km/h 12.2 km/h 94% 0.0 mm 0 W/m2
18:33 8.7 °C 7.8 °C 1019.5 hPa SW 5.0 km/h 12.2 km/h 94% 0.0 mm 0 W/m2
18:38 8.7 °C 7.9 °C 1019.5 hPa SW 6.1 km/h 11.1 km/h 95% 0.0 mm 0 W/m2
18:43 8.6 °C 7.8 °C 1019.5 hPa SW 2.6 km/h 11.1 km/h 95% 0.0 mm 0 W/m2
18:48 8.6 °C 7.8 °C 1019.9 hPa WSW 3.5 km/h 8.7 km/h 95% 0.0 mm 0 W/m2
18:53 8.6 °C 8.0 °C 1019.5 hPa Calm   6.1 km/h 96% 0.0 mm 0 W/m2
18:58 8.6 °C 8.0 °C 1019.9 hPa Calm   5.0 km/h 96% 0.0 mm 0 W/m2
19:03 8.5 °C 7.9 °C 1019.9 hPa SW 5.0 km/h 6.1 km/h 96% 0.0 mm 0 W/m2
19:08 8.6 °C 8.0 °C 1019.5 hPa SW 5.0 km/h 7.2 km/h 96% 0.0 mm 0 W/m2
19:13 8.6 °C 8.0 °C 1019.9 hPa SW 6.1 km/h 11.1 km/h 96% 0.0 mm 0 W/m2
19:18 8.6 °C 8.0 °C 1019.5 hPa SW 3.5 km/h 11.1 km/h 96% 0.0 mm 0 W/m2
19:23 8.5 °C 7.9 °C 1019.5 hPa WSW 1.1 km/h 8.7 km/h 96% 0.0 mm 0 W/m2
19:28 8.5 °C 7.9 °C 1019.5 hPa WNW 1.1 km/h 6.1 km/h 96% 0.0 mm 0 W/m2
19:33 8.5 °C 7.9 °C 1019.9 hPa WNW 1.1 km/h 3.5 km/h 96% 0.0 mm 0 W/m2
19:38 8.5 °C 7.9 °C 1019.9 hPa West 1.1 km/h 3.5 km/h 96% 0.0 mm 0 W/m2
19:43 8.4 °C 7.8 °C 1019.9 hPa WSW 5.0 km/h 7.2 km/h 96% 0.0 mm 0 W/m2
19:48 8.4 °C 7.9 °C 1019.9 hPa WSW 2.6 km/h 8.7 km/h 97% 0.0 mm 0 W/m2
19:53 8.4 °C 7.9 °C 1019.9 hPa WSW 3.5 km/h 8.7 km/h 97% 0.3 mm 0 W/m2
19:58 8.5 °C 8.1 °C 1019.5 hPa WSW 1.1 km/h 9.7 km/h 97% 0.3 mm 0 W/m2
20:03 8.5 °C 8.1 °C 1019.9 hPa SW 6.1 km/h 9.7 km/h 97% 0.3 mm 0 W/m2
20:08 8.5 °C 8.1 °C 1019.9 hPa SW 5.0 km/h 12.2 km/h 97% 0.3 mm 0 W/m2
20:13 8.4 °C 7.9 °C 1019.9 hPa SSW 5.0 km/h 15.8 km/h 97% 0.3 mm 0 W/m2
20:18 8.4 °C 7.9 °C 1019.9 hPa SW 9.7 km/h 15.8 km/h 97% 0.3 mm 0 W/m2
20:19 8.4 °C 7.9 °C 1019.9 hPa SW 6.1 km/h 15.8 km/h 97% 0.3 mm 0 W/m2
20:24 8.4 °C 7.9 °C 1019.9 hPa SW 5.0 km/h 12.2 km/h 97% 0.3 mm 0 W/m2
20:29 8.4 °C 7.9 °C 1019.9 hPa SW 6.1 km/h 8.7 km/h 97% 0.3 mm 0 W/m2
20:34 8.4 °C 7.9 °C 1019.9 hPa SW 3.5 km/h 8.7 km/h 97% 0.3 mm 0 W/m2
20:39 8.4 °C 7.9 °C 1019.9 hPa SW 2.6 km/h 7.2 km/h 97% 0.3 mm 0 W/m2
20:44 8.4 °C 7.9 °C 1019.9 hPa SW 3.5 km/h 7.2 km/h 97% 0.3 mm 0 W/m2
20:49 8.4 °C 7.9 °C 1019.9 hPa SW 3.5 km/h 7.2 km/h 97% 0.3 mm 0 W/m2
20:54 8.4 °C 7.9 °C 1019.9 hPa SW 2.6 km/h 6.1 km/h 97% 0.0 mm 0 W/m2
20:59 8.4 °C 7.9 °C 1019.9 hPa Calm   5.0 km/h 97% 0.0 mm 0 W/m2
21:04 8.3 °C 7.8 °C 1019.9 hPa Calm   3.5 km/h 97% 0.0 mm 0 W/m2
21:09 8.3 °C 7.8 °C 1019.9 hPa Calm   3.5 km/h 97% 0.0 mm 0 W/m2
21:14 8.3 °C 7.8 °C 1019.9 hPa Calm   3.5 km/h 97% 0.0 mm 0 W/m2
21:19 8.3 °C 7.8 °C 1020.2 hPa NE 3.5 km/h 8.7 km/h 97% 0.0 mm 0 W/m2
21:24 8.3 °C 7.8 °C 1019.9 hPa East 2.6 km/h 8.7 km/h 97% 0.0 mm 0 W/m2
21:29 8.3 °C 7.8 °C 1019.9 hPa ESE 2.6 km/h 6.1 km/h 97% 0.0 mm 0 W/m2
21:34 8.3 °C 7.8 °C 1019.9 hPa NNE 1.1 km/h 5.0 km/h 97% 0.0 mm 0 W/m2
21:39 8.3 °C 7.7 °C 1019.9 hPa Calm   5.0 km/h 96% 0.0 mm 0 W/m2
21:44 8.3 °C 7.7 °C 1019.9 hPa NNW 1.1 km/h 5.0 km/h 96% 0.0 mm 0 W/m2
21:49 8.3 °C 7.7 °C 1019.9 hPa NNW 2.6 km/h 5.0 km/h 96% 0.0 mm 0 W/m2
21:54 8.3 °C 7.7 °C 1019.9 hPa NNW 3.5 km/h 5.0 km/h 96% 0.0 mm 0 W/m2
21:59 8.3 °C 7.7 °C 1019.9 hPa NW 2.6 km/h 5.0 km/h 96% 0.0 mm 0 W/m2
22:04 8.2 °C 7.6 °C 1019.9 hPa Calm   6.1 km/h 96% 0.0 mm 0 W/m2
22:09 8.2 °C 7.6 °C 1019.9 hPa North 1.1 km/h 6.1 km/h 96% 0.0 mm 0 W/m2
22:14 8.2 °C 7.6 °C 1019.9 hPa North 2.6 km/h 5.0 km/h 96% 0.0 mm 0 W/m2
22:19 8.1 °C 7.5 °C 1019.9 hPa Calm   5.0 km/h 96% 0.3 mm 0 W/m2
22:24 8.1 °C 7.5 °C 1019.9 hPa NNW 1.1 km/h 5.0 km/h 96% 0.3 mm 0 W/m2
22:29 8.1 °C 7.5 °C 1019.5 hPa North 2.6 km/h 3.5 km/h 96% 0.3 mm 0 W/m2
22:34 8.1 °C 7.5 °C 1019.5 hPa North 1.1 km/h 3.5 km/h 96% 0.3 mm 0 W/m2
22:39 8.0 °C 7.6 °C 1019.9 hPa North 1.1 km/h 3.5 km/h 97% 0.3 mm 0 W/m2
22:44 8.0 °C 7.6 °C 1019.5 hPa North 1.1 km/h 3.5 km/h 97% 0.3 mm 0 W/m2
22:49 8.0 °C 7.6 °C 1019.5 hPa North 2.6 km/h 3.5 km/h 97% 0.3 mm 0 W/m2
22:54 8.0 °C 7.6 °C 1019.5 hPa NNE 2.6 km/h 3.5 km/h 97% 0.3 mm 0 W/m2
22:59 8.0 °C 7.6 °C 1019.5 hPa NE 2.6 km/h 6.1 km/h 97% 0.3 mm 0 W/m2
23:04 8.0 °C 7.6 °C 1019.5 hPa NE 1.1 km/h 8.7 km/h 97% 0.3 mm 0 W/m2
23:09 8.0 °C 7.6 °C 1019.5 hPa Calm   8.7 km/h 97% 0.3 mm 0 W/m2
23:14 8.0 °C 7.6 °C 1019.5 hPa NNW 5.0 km/h 7.2 km/h 97% 0.3 mm 0 W/m2
23:19 8.0 °C 7.6 °C 1019.5 hPa WNW 2.6 km/h 7.2 km/h 97% 0.0 mm 0 W/m2
23:24 8.0 °C 7.6 °C 1019.5 hPa WNW 2.6 km/h 7.2 km/h 97% 0.0 mm 0 W/m2
23:29 8.0 °C 7.6 °C 1019.5 hPa NW 3.5 km/h 7.2 km/h 97% 0.0 mm 0 W/m2
23:34 8.0 °C 7.6 °C 1019.5 hPa NW 2.6 km/h 6.1 km/h 97% 0.0 mm 0 W/m2
23:39 8.0 °C 7.6 °C 1019.5 hPa Calm   5.0 km/h 97% 0.0 mm 0 W/m2
23:44 7.9 °C 7.4 °C 1019.5 hPa Calm   5.0 km/h 97% 0.0 mm 0 W/m2
23:49 7.9 °C 7.4 °C 1019.5 hPa NE 2.6 km/h 3.5 km/h 97% 0.0 mm 0 W/m2
23:54 7.9 °C 7.4 °C 1019.5 hPa NNE 2.6 km/h 5.0 km/h 97% 0.0 mm 0 W/m2
23:59 7.9 °C 7.4 °C 1019.5 hPa North 5.0 km/h 7.2 km/h 97% 0.0 mm 0 W/m2
Northern Hawkes Bay. New Zealand Historic Data
Compliments of Weather Underground - 2 mb